Time;durP1;ratioP1;P1;durP2;ratioP2;P2;SDS_P1;SDS_P2;PMS_P1;PMS_P2;Temp;Humidity;BMP_temperature;BMP_pressure;BME280_temperature;BME280_humidity;BME280_pressure;Samples;Min_cycle;Max_cycle;Signal;HPM_P1;HPM_P2
2021/11/11 00:02:27;;;;;;;31.82;16.62;;;;;;;0.49;67.02;102773.55;1795044;77;21390;-60
2021/11/11 00:05:36;;;;;;;33.53;17.62;;;;;;;0.47;67.03;102755.23;1778278;78;21288;-61
2021/11/11 00:08:42;;;;;;;32.05;16.25;;;;;;;0.44;66.93;102770.16;1777864;78;21231;-60
2021/11/11 00:11:49;;;;;;;31.97;16.77;;;;;;;0.40;67.04;102767.14;1784843;77;21433;-61
2021/11/11 00:14:57;;;;;;;30.00;15.98;;;;;;;0.40;67.02;102764.45;1792233;78;21178;-60
2021/11/11 00:18:02;;;;;;;35.98;16.73;;;;;;;0.42;67.11;102757.66;1794706;78;21245;-60
2021/11/11 00:21:09;;;;;;;35.63;16.17;;;;;;;0.44;67.13;102736.94;1763876;78;21312;-60
2021/11/11 00:24:15;;;;;;;28.70;15.08;;;;;;;0.44;66.89;102719.43;1793543;77;21240;-60
2021/11/11 00:27:21;;;;;;;28.40;15.50;;;;;;;0.39;66.54;102731.72;1779505;77;21428;-60
2021/11/11 00:30:27;;;;;;;26.70;14.73;;;;;;;0.35;66.46;102723.31;1796758;79;21350;-60
2021/11/11 00:33:36;;;;;;;28.50;13.88;;;;;;;0.34;66.44;102713.48;1779524;78;21402;-60
2021/11/11 00:36:42;;;;;;;30.48;14.85;;;;;;;0.33;66.34;102721.63;1797873;79;21208;-60
2021/11/11 00:39:49;;;;;;;30.43;15.58;;;;;;;0.33;66.45;102731.94;1787550;76;21303;-60
2021/11/11 00:42:54;;;;;;;32.73;15.68;;;;;;;0.37;66.47;102735.37;1780400;77;21221;-60
2021/11/11 00:45:59;;;;;;;29.23;16.10;;;;;;;0.41;66.38;102724.92;1794507;76;21279;-59
2021/11/11 00:49:07;;;;;;;27.13;15.28;;;;;;;0.47;66.12;102740.88;1788719;77;21374;-59
2021/11/11 00:52:15;;;;;;;29.48;15.68;;;;;;;0.48;65.93;102721.95;1791302;78;21235;-60
2021/11/11 00:55:21;;;;;;;34.23;15.80;;;;;;;0.47;65.71;102723.36;1785067;77;21248;-60
2021/11/11 00:58:32;;;;;;;;;;;;;;;0.43;65.62;102740.09;1793023;78;21315;-60
2021/11/11 01:01:41;;;;;;;28.52;14.73;;;;;;;0.38;65.57;102737.16;1796875;77;20257;-61
2021/11/11 01:04:46;;;;;;;30.05;16.15;;;;;;;0.35;65.56;102739.97;1726764;78;21190;-60
2021/11/11 01:07:55;;;;;;;28.57;15.85;;;;;;;0.32;65.42;102742.28;1736389;79;21245;-60
2021/11/11 01:11:00;;;;;;;29.12;15.08;;;;;;;0.29;65.56;102732.97;1790625;77;21252;-60
2021/11/11 01:14:06;;;;;;;31.60;15.93;;;;;;;0.25;65.72;102727.28;1791832;77;21183;-60
2021/11/11 01:17:12;;;;;;;29.75;16.75;;;;;;;0.22;65.79;102734.13;1788819;77;21177;-61
2021/11/11 01:20:18;;;;;;;29.72;15.32;;;;;;;0.22;65.82;102734.59;1796019;77;21184;-61
2021/11/11 01:23:24;;;;;;;26.02;13.80;;;;;;;0.23;65.78;102724.22;1791617;77;21330;-61
2021/11/11 01:26:30;;;;;;;25.72;14.87;;;;;;;0.23;65.70;102712.98;1798411;78;21358;-60
2021/11/11 01:29:36;;;;;;;30.02;15.72;;;;;;;0.23;65.60;102713.44;1799886;79;21423;-60
2021/11/11 01:32:45;;;;;;;24.37;14.63;;;;;;;0.22;65.55;102722.01;1787158;78;21362;-61
2021/11/11 01:35:53;;;;;;;25.82;14.45;;;;;;;0.18;65.56;102717.64;1756841;78;21465;-60
2021/11/11 01:39:01;;;;;;;26.48;14.40;;;;;;;0.18;65.64;102727.53;1761029;79;21323;-60
2021/11/11 01:42:09;;;;;;;26.73;14.68;;;;;;;0.19;65.83;102718.53;1782127;79;21339;-60
2021/11/11 01:45:17;;;;;;;26.12;13.98;;;;;;;0.24;65.91;102710.69;1783104;76;21470;-60
2021/11/11 01:48:27;;;;;;;27.15;13.85;;;;;;;0.31;65.93;102714.05;1790420;76;21474;-62
2021/11/11 01:51:36;;;;;;;27.15;14.15;;;;;;;0.39;65.93;102694.00;1777269;76;21338;-61
2021/11/11 01:54:44;;;;;;;25.37;14.25;;;;;;;0.49;66.02;102691.37;1800586;76;21855;-60
2021/11/11 01:57:51;;;;;;;25.05;13.45;;;;;;;0.59;66.09;102687.87;1800528;77;21315;-61
2021/11/11 02:01:04;;;;;;;29.82;14.40;;;;;;;0.70;66.04;102682.99;1787182;77;21223;-59
2021/11/11 02:04:13;;;;;;;27.35;14.75;;;;;;;0.80;65.96;102687.97;1785082;78;21391;-60
2021/11/11 02:07:22;;;;;;;26.12;14.23;;;;;;;0.86;65.86;102689.08;1791647;76;21241;-60
2021/11/11 02:10:30;;;;;;;22.95;13.18;;;;;;;0.93;65.91;102692.42;1793174;76;21346;-61
2021/11/11 02:13:35;;;;;;;26.82;14.40;;;;;;;1.03;65.79;102689.31;1796896;77;21330;-59
2021/11/11 02:16:45;;;;;;;28.77;15.23;;;;;;;1.14;65.62;102693.81;1774624;79;21289;-60
2021/11/11 02:20:05;;;;;;;25.17;14.50;;;;;;;1.23;65.39;102690.78;1721691;79;21224;-60
2021/11/11 02:23:31;;;;;;;25.50;13.68;;;;;;;1.27;65.30;102695.10;1779069;78;21856;-60
2021/11/11 02:26:39;;;;;;;23.83;13.45;;;;;;;1.33;65.31;102701.59;1773843;78;21323;-60
2021/11/11 02:29:48;;;;;;;23.52;14.03;;;;;;;1.39;65.11;102689.23;1783430;78;21405;-60
2021/11/11 02:32:55;;;;;;;27.95;15.08;;;;;;;1.46;64.98;102693.89;1793546;77;21219;-60
2021/11/11 02:36:04;;;;;;;28.07;15.23;;;;;;;1.51;64.98;102676.59;1797812;78;22355;-62
2021/11/11 02:39:08;;;;;;;28.00;14.93;;;;;;;1.57;64.87;102675.44;1797982;77;21363;-62
2021/11/11 02:42:15;;;;;;;31.75;15.00;;;;;;;1.59;64.83;102679.45;1794915;77;21244;-60
2021/11/11 02:45:25;;;;;;;26.85;14.18;;;;;;;1.61;64.98;102681.14;1797047;79;21362;-61
2021/11/11 02:48:32;;;;;;;27.25;14.45;;;;;;;1.61;64.82;102682.95;1799425;77;21322;-59
2021/11/11 02:51:38;;;;;;;26.90;15.50;;;;;;;1.63;64.97;102688.72;1786832;77;21343;-61
2021/11/11 02:54:46;;;;;;;28.85;15.20;;;;;;;1.67;65.08;102692.14;1796802;78;21340;-60
2021/11/11 02:57:53;;;;;;;33.13;15.60;;;;;;;1.68;65.02;102688.52;1786738;77;21848;-60
2021/11/11 03:01:07;;;;;;;26.40;14.40;;;;;;;1.70;64.96;102685.30;1803391;77;21185;-60
2021/11/11 03:04:14;;;;;;;29.72;15.10;;;;;;;1.72;64.88;102675.28;1799317;77;21367;-60
2021/11/11 03:07:21;;;;;;;27.98;14.58;;;;;;;1.72;64.84;102666.73;1797186;76;21192;-60
2021/11/11 03:10:35;;;;;;;26.40;13.38;;;;;;;1.68;64.77;102667.81;1779604;77;21180;-60
2021/11/11 03:13:41;;;;;;;22.67;12.45;;;;;;;1.67;65.00;102677.30;1790299;77;21875;-60
2021/11/11 03:16:48;;;;;;;22.93;12.05;;;;;;;1.73;65.11;102689.21;1786840;77;21182;-60
2021/11/11 03:19:55;;;;;;;22.13;13.20;;;;;;;1.78;65.03;102689.88;1698749;81;21236;-60
2021/11/11 03:23:01;;;;;;;21.90;12.23;;;;;;;1.83;64.96;102685.16;1772702;79;21240;-61
2021/11/11 03:26:07;;;;;;;21.35;12.80;;;;;;;1.84;64.76;102684.24;1800053;78;21161;-60
2021/11/11 03:29:15;;;;;;;23.87;13.98;;;;;;;1.86;64.79;102683.69;1799447;77;21451;-60
2021/11/11 03:32:26;;;;;;;27.00;14.45;;;;;;;1.89;64.80;102687.64;1792800;79;21688;-60
2021/11/11 03:35:33;;;;;;;25.08;15.63;;;;;;;1.90;64.80;102681.28;1797993;79;21386;-60
2021/11/11 03:38:39;;;;;;;24.32;14.05;;;;;;;1.91;64.82;102674.92;1799864;76;21307;-62
2021/11/11 03:41:48;;;;;;;21.60;13.60;;;;;;;1.84;64.77;102680.20;1797708;76;21425;-59
2021/11/11 03:44:55;;;;;;;22.85;13.75;;;;;;;1.78;64.97;102673.21;1787098;77;21465;-61
2021/11/11 03:48:03;;;;;;;20.40;12.80;;;;;;;1.74;65.25;102663.96;1785776;77;21204;-59
2021/11/11 03:51:16;;;;;;;23.20;13.48;;;;;;;1.72;65.39;102662.67;1788473;77;21323;-61
2021/11/11 03:54:24;;;;;;;24.02;13.03;;;;;;;1.67;65.51;102657.05;1787199;77;21334;-60
2021/11/11 03:57:31;;;;;;;24.40;14.30;;;;;;;1.58;65.68;102650.69;1783268;78;21383;-60
2021/11/11 04:00:37;;;;;;;26.87;14.87;;;;;;;1.51;65.89;102644.20;1795703;76;21322;-61
2021/11/11 04:03:45;;;;;;;25.77;14.87;;;;;;;1.45;66.07;102641.76;1794185;79;21339;-61
2021/11/11 04:06:59;;;;;;;26.00;16.27;;;;;;;1.35;66.14;102632.73;1800231;76;21204;-62
2021/11/11 04:10:08;;;;;;;28.80;17.30;;;;;;;1.26;66.44;102623.67;1790755;78;21321;-61
2021/11/11 04:13:17;;;;;;;32.35;18.50;;;;;;;1.17;66.68;102616.81;1773328;78;21359;-61
2021/11/11 04:16:24;;;;;;;30.72;19.02;;;;;;;1.10;66.90;102609.94;1778147;78;21597;-61
2021/11/11 04:19:32;;;;;;;28.10;16.17;;;;;;;1.02;67.17;102599.92;1779422;77;21831;-61
2021/11/11 04:22:39;;;;;;;25.52;15.23;;;;;;;0.93;67.36;102605.69;1771867;77;21361;-61
2021/11/11 04:29:09;;;;;;;23.73;12.78;;;;;;;0.80;67.89;102603.05;1772550;78;21213;-60
2021/11/11 04:32:14;;;;;;;20.05;12.35;;;;;;;0.74;68.17;102600.61;1771140;77;21378;-61
2021/11/11 04:35:21;;;;;;;19.15;10.70;;;;;;;0.68;68.37;102594.08;1770248;77;21415;-60
2021/11/11 05:04:34;;;;;;;27.05;15.38;;;;;;;0.59;69.30;102584.12;1772813;78;21823;-60
2021/11/11 05:07:45;;;;;;;27.45;14.10;;;;;;;0.55;69.16;102593.27;1768585;78;21409;-60
2021/11/11 05:10:55;;;;;;;22.73;12.90;;;;;;;0.53;69.14;102597.83;1766821;77;21327;-60
2021/11/11 05:14:01;;;;;;;21.45;12.03;;;;;;;0.51;69.21;102601.08;1754886;78;21225;-61
2021/11/11 05:17:09;;;;;;;18.60;10.48;;;;;;;0.55;69.22;102608.98;1774374;78;21346;-60
2021/11/11 05:20:18;;;;;;;24.45;10.08;;;;;;;0.56;69.21;102601.75;1759113;80;21867;-60
2021/11/11 05:23:26;;;;;;;18.17;9.50;;;;;;;0.58;69.17;102605.28;1742288;79;21279;-60
2021/11/11 05:26:31;;;;;;;19.02;9.38;;;;;;;0.58;69.09;102604.82;1757458;79;21413;-61
2021/11/11 05:29:38;;;;;;;18.85;9.08;;;;;;;0.59;68.98;102606.56;1764173;80;21205;-61
2021/11/11 05:32:43;;;;;;;14.73;8.13;;;;;;;0.60;68.90;102604.30;1768120;78;21200;-60
2021/11/11 05:35:52;;;;;;;16.30;9.43;;;;;;;0.64;68.84;102614.02;1765072;79;21362;-61
2021/11/11 05:39:01;;;;;;;13.03;7.67;;;;;;;0.66;68.73;102603.17;1761154;79;21204;-61
2021/11/11 05:42:09;;;;;;;19.40;8.53;;;;;;;0.68;68.61;102595.91;1762655;79;21811;-61
2021/11/11 05:45:16;;;;;;;13.55;8.15;;;;;;;0.69;68.57;102604.40;1721093;79;21379;-61
2021/11/11 05:48:22;;;;;;;11.80;7.92;;;;;;;0.70;68.55;102612.42;1795797;78;21785;-61
2021/11/11 05:51:28;;;;;;;16.52;8.98;;;;;;;0.69;68.49;102603.94;1790991;79;21415;-61
2021/11/11 05:54:37;;;;;;;17.73;8.98;;;;;;;0.71;68.57;102621.40;1762980;76;21577;-61
2021/11/11 05:57:42;;;;;;;17.25;9.33;;;;;;;0.74;68.64;102618.12;1765027;76;21213;-60
2021/11/11 06:00:55;;;;;;;18.95;10.03;;;;;;;0.78;68.58;102613.47;1772551;77;21242;-61
2021/11/11 06:04:02;;;;;;;20.50;10.78;;;;;;;0.84;68.49;102624.90;1786427;77;21669;-62
2021/11/11 06:07:10;;;;;;;21.00;11.78;;;;;;;0.89;68.45;102622.02;1758890;77;21477;-60
2021/11/11 06:10:17;;;;;;;21.25;12.58;;;;;;;0.94;68.36;102619.56;1780644;78;21185;-61
2021/11/11 06:13:24;;;;;;;25.85;13.30;;;;;;;1.01;68.30;102622.91;1747749;77;21204;-60
2021/11/11 06:16:28;;;;;;;29.82;14.10;;;;;;;1.09;68.18;102620.32;1769962;80;21193;-62
2021/11/11 06:19:35;;;;;;;26.23;13.35;;;;;;;1.14;68.02;102614.25;1773227;77;21185;-63
2021/11/11 06:22:45;;;;;;;20.23;12.15;;;;;;;1.22;67.90;102606.72;1773282;78;21358;-61
2021/11/11 06:25:51;;;;;;;23.77;13.48;;;;;;;1.29;67.89;102601.50;1760143;77;21298;-63
2021/11/11 06:29:02;;;;;;;23.92;11.93;;;;;;;1.37;67.83;102602.06;1743290;77;21668;-64
2021/11/11 06:32:10;;;;;;;19.57;11.75;;;;;;;1.43;67.64;102600.45;1775208;77;21864;-63
2021/11/11 06:35:18;;;;;;;27.77;14.63;;;;;;;1.48;67.44;102593.05;1772946;76;21208;-62
2021/11/11 06:38:24;;;;;;;47.60;22.55;;;;;;;1.55;67.39;102603.98;1782794;76;21244;-64
2021/11/11 06:41:29;;;;;;;41.75;20.02;;;;;;;1.65;67.33;102598.22;1760097;77;21263;-63
2021/11/11 06:44:35;;;;;;;30.75;13.90;;;;;;;1.76;67.21;102590.04;1755809;77;21791;-63
2021/11/11 06:47:44;;;;;;;31.77;13.53;;;;;;;1.86;67.04;102588.70;1753835;78;21256;-63
2021/11/11 06:50:49;;;;;;;26.07;12.30;;;;;;;1.96;66.72;102577.03;1761036;78;21224;-64
2021/11/11 06:53:55;;;;;;;26.00;14.00;;;;;;;2.05;66.32;102575.26;1781759;78;21256;-63
2021/11/11 06:57:00;;;;;;;25.08;13.90;;;;;;;2.15;65.98;102568.05;1752655;78;21721;-64
2021/11/11 07:00:13;;;;;;;27.13;12.68;;;;;;;2.24;65.65;102559.98;1781559;78;21214;-63
2021/11/11 07:03:20;;;;;;;26.00;12.93;;;;;;;2.33;65.29;102551.47;1762056;80;21719;-63
2021/11/11 07:06:25;;;;;;;22.52;11.75;;;;;;;2.40;64.90;102548.87;1772238;77;21187;-63
2021/11/11 07:09:34;;;;;;;27.20;13.05;;;;;;;2.49;64.23;102543.06;1753669;79;21211;-63
2021/11/11 07:12:44;;;;;;;30.95;14.47;;;;;;;2.54;63.73;102547.75;1763750;78;21290;-63
2021/11/11 07:15:48;;;;;;;32.05;15.88;;;;;;;2.60;63.09;102541.59;1717847;78;21304;-63
2021/11/11 07:18:53;;;;;;;24.10;14.13;;;;;;;2.64;62.71;102536.92;1687675;80;21260;-63
2021/11/11 07:22:08;;;;;;;18.62;10.90;;;;;;;2.70;62.57;102537.97;1770656;79;21187;-62
2021/11/11 07:25:15;;;;;;;20.85;11.57;;;;;;;2.73;62.09;102540.52;1779120;77;21193;-63
2021/11/11 07:28:22;;;;;;;20.43;12.05;;;;;;;2.77;61.82;102534.03;1769331;77;21730;-64
2021/11/11 07:31:31;;;;;;;22.15;10.60;;;;;;;2.80;61.75;102539.29;1779916;78;21769;-63
2021/11/11 07:34:38;;;;;;;16.30;9.98;;;;;;;2.85;61.36;102534.55;1781574;76;21185;-63
2021/11/11 07:37:48;;;;;;;20.88;11.95;;;;;;;2.88;60.92;102524.46;1754237;79;21199;-61
2021/11/11 07:40:55;;;;;;;24.23;12.00;;;;;;;2.95;60.99;102527.71;1762666;76;21192;-63
2021/11/11 07:44:00;;;;;;;17.90;10.85;;;;;;;3.03;60.83;102516.92;1756401;78;21200;-62
2021/11/11 07:47:06;;;;;;;22.98;12.35;;;;;;;3.11;60.57;102535.48;1759720;78;21358;-64
2021/11/11 07:50:15;;;;;;;13.70;8.95;;;;;;;3.19;60.25;102532.42;1787244;77;21196;-62
2021/11/11 07:53:21;;;;;;;28.10;16.70;;;;;;;3.24;59.68;102526.27;1755594;76;21208;-62
2021/11/11 07:56:26;;;;;;;21.37;11.43;;;;;;;3.29;59.46;102528.27;1767586;78;21183;-62
2021/11/11 07:59:37;;;;;;;15.93;9.50;;;;;;;3.34;59.47;102516.28;1766828;78;21244;-60
2021/11/11 08:02:45;;;;;;;19.12;10.15;;;;;;;3.42;59.15;102518.12;1788856;78;21782;-62
2021/11/11 08:05:52;;;;;;;22.52;10.38;;;;;;;3.49;58.53;102514.13;1766356;79;21726;-62
2021/11/11 08:08:58;;;;;;;14.80;8.15;;;;;;;3.57;58.05;102512.40;1784492;78;21884;-61
2021/11/11 08:12:03;;;;;;;13.78;8.00;;;;;;;3.61;57.64;102508.09;1771764;79;21181;-62
2021/11/11 08:15:10;;;;;;;14.15;7.22;;;;;;;3.67;57.46;102507.77;1768053;78;21263;-62
2021/11/11 08:18:19;;;;;;;13.88;8.00;;;;;;;3.74;57.02;102489.37;1771263;77;21199;-62
2021/11/11 08:21:27;;;;;;;10.95;6.92;;;;;;;3.83;56.85;102492.93;1749204;79;21208;-62
2021/11/11 08:24:41;;;;;;;15.93;7.80;;;;;;;3.93;56.64;102492.34;1766277;80;21188;-62
2021/11/11 08:27:46;;;;;;;15.23;7.42;;;;;;;4.02;56.12;102494.59;1742489;79;21240;-62
2021/11/11 08:30:53;;;;;;;16.80;7.92;;;;;;;4.10;55.53;102484.68;1780966;76;21263;-62
2021/11/11 08:34:02;;;;;;;16.75;7.70;;;;;;;4.17;56.37;102483.40;1770335;77;21590;-62
2021/11/11 08:37:10;;;;;;;18.20;8.13;;;;;;;4.27;55.48;102481.91;1774682;76;21219;-61
2021/11/11 08:40:21;;;;;;;12.88;8.45;;;;;;;4.36;54.66;102475.50;1786763;77;21187;-63
2021/11/11 08:43:27;;;;;;;19.32;9.85;;;;;;;4.44;54.24;102473.70;1788861;77;21773;-61
2021/11/11 08:46:36;;;;;;;16.15;9.53;;;;;;;4.53;53.80;102476.78;1774963;77;21239;-65
2021/11/11 08:49:44;;;;;;;13.25;7.58;;;;;;;4.60;52.80;102476.84;1756618;79;21401;-62
2021/11/11 08:52:55;;;;;;;13.55;7.65;;;;;;;4.62;51.92;102471.33;1735831;79;21231;-60
2021/11/11 08:56:06;;;;;;;17.23;7.90;;;;;;;4.67;51.99;102465.64;1771388;77;21388;-59
2021/11/11 08:59:12;;;;;;;14.70;7.00;;;;;;;4.74;51.92;102454.84;1772566;77;21323;-59
2021/11/11 09:02:20;;;;;;;14.00;6.62;;;;;;;4.79;51.69;102439.18;1786351;77;21319;-60
2021/11/11 09:05:34;;;;;;;9.93;5.90;;;;;;;4.85;51.45;102446.95;1769120;78;21292;-58
2021/11/11 09:08:40;;;;;;;14.43;6.87;;;;;;;4.91;51.03;102450.66;1776286;76;21208;-59
2021/11/11 09:11:46;;;;;;;13.03;5.83;;;;;;;4.97;51.19;102448.95;1785286;77;21891;-59
2021/11/11 09:14:53;;;;;;;9.23;5.87;;;;;;;5.05;50.61;102437.16;1768438;79;21386;-60
2021/11/11 09:18:02;;;;;;;12.10;5.35;;;;;;;5.10;50.01;102433.22;1770594;77;21710;-60
2021/11/11 09:21:11;;;;;;;12.05;5.70;;;;;;;5.16;49.89;102422.46;1700993;80;21790;-60
2021/11/11 09:24:16;;;;;;;10.32;5.10;;;;;;;5.21;49.97;102404.06;1768519;78;21201;-58
2021/11/11 09:27:24;;;;;;;12.00;4.97;;;;;;;5.29;49.73;102402.64;1734340;80;21685;-60
2021/11/11 09:30:35;;;;;;;18.15;5.85;;;;;;;5.38;49.32;102402.55;1767315;78;21800;-60
2021/11/11 09:33:41;;;;;;;10.75;4.28;;;;;;;5.46;48.49;102390.73;1771900;76;21207;-60
2021/11/11 09:36:50;;;;;;;12.23;5.45;;;;;;;5.52;47.95;102395.78;1756479;77;21228;-60
2021/11/11 09:39:56;;;;;;;9.65;5.55;;;;;;;5.60;47.93;102388.92;1755725;80;21285;-58
2021/11/11 09:43:05;;;;;;;9.05;5.45;;;;;;;5.68;47.76;102363.98;1779650;79;21503;-59
2021/11/11 09:46:20;;;;;;;13.70;5.53;;;;;;;5.76;47.48;102373.88;1755896;79;21402;-57
2021/11/11 09:49:27;;;;;;;;;;;;;;;5.87;47.47;102374.11;1773529;77;21220;-57
2021/11/11 09:52:41;;;;;;;9.90;5.37;;;;;;;5.99;47.15;102374.70;1792438;79;20265;-58
2021/11/11 09:59:14;;;;;;;12.47;5.55;;;;;;;6.18;46.69;102382.07;1753967;79;21821;-57
2021/11/11 10:02:21;;;;;;;8.68;5.12;;;;;;;6.25;46.66;102370.31;1761595;78;21236;-56
2021/11/11 10:05:29;;;;;;;12.73;5.70;;;;;;;6.32;46.45;102360.77;1765533;79;21758;-57
2021/11/11 10:08:43;;;;;;;12.15;5.53;;;;;;;6.39;46.17;102364.33;1763319;78;21276;-55
2021/11/11 10:11:53;;;;;;;8.23;5.37;;;;;;;6.42;46.00;102369.59;1751913;78;21189;-56
2021/11/11 10:14:59;;;;;;;11.18;5.85;;;;;;;6.44;46.02;102368.14;1742683;77;21212;-57
2021/11/11 10:18:06;;;;;;;10.35;5.53;;;;;;;6.49;46.16;102361.40;1754108;79;21259;-57
2021/11/11 10:21:33;;;;;;;14.50;5.53;;;;;;;6.61;45.94;102371.45;1765450;80;21186;-55
2021/11/11 10:24:48;;;;;;;11.83;5.12;;;;;;;6.67;45.34;102359.30;1765678;79;21214;-56
2021/11/11 10:28:01;;;;;;;13.95;4.95;;;;;;;6.73;45.26;102343.44;1765878;78;21237;-56
2021/11/11 10:31:03;;;;;;;9.95;6.10;;;;;;;6.81;45.15;102331.55;1742769;77;21760;-55
2021/11/11 10:34:17;;;;;;;9.93;5.03;;;;;;;6.89;45.05;102311.48;1760315;77;21760;-55
2021/11/11 10:37:23;;;;;;;11.00;5.58;;;;;;;7.01;44.79;102298.84;1751882;77;22192;-54
2021/11/11 10:40:44;;;;;;;20.15;6.85;;;;;;;7.11;44.36;102294.52;1761307;78;21795;-55
2021/11/11 10:43:50;;;;;;;14.73;6.58;;;;;;;7.17;43.77;102282.70;1763597;81;21327;-56
2021/11/11 10:47:12;;;;;;;12.88;4.97;;;;;;;7.20;43.18;102275.67;1765676;79;21366;-56
2021/11/11 10:50:25;;;;;;;10.65;4.58;;;;;;;7.16;42.92;102268.72;1748154;79;21225;-57
2021/11/11 10:53:37;;;;;;;12.63;5.50;;;;;;;7.20;43.03;102277.52;1760796;79;21205;-56
2021/11/11 10:56:54;;;;;;;12.43;5.72;;;;;;;7.27;42.87;102266.10;1760550;80;21213;-57
2021/11/11 11:00:28;;;;;;;15.55;5.33;;;;;;;7.32;42.96;102265.30;1746007;78;21216;-55
2021/11/11 11:03:42;;;;;;;14.45;5.55;;;;;;;7.39;43.11;102258.41;1762490;79;21416;-55
2021/11/11 11:06:49;;;;;;;16.00;5.57;;;;;;;7.46;42.47;102250.66;1772584;79;21264;-56
2021/11/11 11:09:56;;;;;;;14.80;6.20;;;;;;;7.48;41.89;102233.21;1790508;78;21251;-58
2021/11/11 11:13:04;;;;;;;15.05;5.87;;;;;;;7.52;41.73;102239.31;1731216;81;21254;-59
2021/11/11 11:16:14;;;;;;;10.80;5.22;;;;;;;7.53;41.87;102221.48;1748507;79;21231;-57
2021/11/11 11:19:23;;;;;;;10.60;5.83;;;;;;;7.61;42.05;102212.27;1772104;78;21269;-59
2021/11/11 11:22:32;;;;;;;10.68;4.53;;;;;;;7.72;41.53;102211.98;1790540;77;21331;-58
2021/11/11 11:25:39;;;;;;;15.72;5.87;;;;;;;7.80;40.87;102204.11;1781578;77;21192;-58
2021/11/11 11:28:49;;;;;;;16.37;6.37;;;;;;;7.87;40.46;102195.83;1780927;77;21259;-59
2021/11/11 11:32:08;;;;;;;18.92;8.35;;;;;;;7.92;40.15;102187.70;1771659;77;21764;-59
2021/11/11 11:35:17;;;;;;;18.90;8.00;;;;;;;7.94;40.36;102184.86;1751701;77;21729;-58
2021/11/11 11:38:38;;;;;;;14.55;7.08;;;;;;;7.96;40.30;102171.47;1769474;77;21219;-58
2021/11/11 11:41:49;;;;;;;14.93;7.42;;;;;;;8.01;40.35;102167.91;1754321;80;21853;-59
2021/11/11 11:45:01;;;;;;;16.45;6.95;;;;;;;8.16;41.34;102159.06;1749222;80;21231;-59
2021/11/11 11:48:18;;;;;;;12.18;5.92;;;;;;;8.26;41.68;102160.98;1756515;78;21295;-60
2021/11/11 11:51:24;;;;;;;15.93;8.63;;;;;;;8.34;40.69;102157.70;1760242;78;21217;-59
2021/11/11 11:54:43;;;;;;;22.05;8.33;;;;;;;8.39;40.03;102143.17;1760606;79;21385;-58
2021/11/11 12:07:54;;;;;;;14.83;6.92;;;;;;;8.54;40.23;102133.80;1764949;77;21767;-58
2021/11/11 12:14:57;;;;;;;16.87;9.33;;;;;;;8.49;39.66;102126.47;1771559;79;21174;-58
2021/11/11 12:39:01;;;;;;;14.70;7.87;;;;;;;8.50;38.85;102089.50;1754676;80;21470;-59
2021/11/11 12:42:10;;;;;;;19.67;9.23;;;;;;;8.45;38.39;102087.63;1762444;79;21206;-59
2021/11/11 12:45:42;;;;;;;34.10;10.85;;;;;;;8.41;38.29;102078.44;1768618;79;21221;-58
2021/11/11 12:48:50;;;;;;;27.95;11.83;;;;;;;8.38;38.51;102075.95;1785636;76;21165;-58
2021/11/11 12:52:32;;;;;;;28.32;12.65;;;;;;;8.36;38.43;102075.19;1787609;79;21324;-58
2021/11/11 12:55:37;;;;;;;24.47;10.40;;;;;;;8.34;38.67;102064.40;1774937;78;21542;-58
2021/11/11 12:59:02;;;;;;;24.95;10.18;;;;;;;8.38;38.76;102065.03;1784931;76;21219;-58
2021/11/11 13:02:14;;;;;;;20.77;8.38;;;;;;;8.37;38.28;102060.58;1767079;78;22084;-60
2021/11/11 13:06:02;;;;;;;17.80;7.97;;;;;;;8.33;38.40;102053.61;1765055;78;21239;-58
2021/11/11 13:09:11;;;;;;;26.40;9.83;;;;;;;8.29;38.42;102044.79;1780440;78;21257;-58
2021/11/11 13:12:27;;;;;;;22.60;9.23;;;;;;;8.28;38.60;102049.00;1791338;77;21800;-58
2021/11/11 13:15:36;;;;;;;19.23;7.92;;;;;;;8.27;38.52;102047.28;1780223;77;21369;-59
2021/11/11 13:18:52;;;;;;;25.30;10.03;;;;;;;8.21;38.51;102039.55;1789697;80;21374;-58
2021/11/11 13:22:10;;;;;;;23.18;10.30;;;;;;;8.13;38.51;102045.61;1781222;80;21298;-58
2021/11/11 13:25:36;;;;;;;23.73;10.00;;;;;;;8.07;38.91;102039.77;1739848;77;21211;-58
2021/11/11 13:28:55;;;;;;;28.57;9.38;;;;;;;8.00;39.19;102031.67;1782337;77;21336;-59
2021/11/11 15:14:08;;;;;;;33.67;16.17;;;;;;;5.07;49.90;101948.02;1647705;84;21267;-58
2021/11/11 15:15:33;;;;;;;29.05;14.60;;;;;;;4.98;50.22;101945.94;1764762;77;21319;-59
2021/11/11 16:26:12;;;;;;;28.80;11.93;;;;;;;4.78;53.11;101878.06;1773692;77;21219;-55
2021/11/11 16:29:13;;;;;;;37.48;12.78;;;;;;;4.78;53.18;101873.11;1759583;78;21406;-55
2021/11/11 16:32:20;;;;;;;32.15;15.25;;;;;;;4.78;53.30;101872.64;1750999;82;21222;-54
2021/11/11 16:35:29;;;;;;;36.80;15.45;;;;;;;4.80;53.29;101861.69;1748694;78;21431;-54
2021/11/11 16:38:37;;;;;;;35.00;14.43;;;;;;;4.82;53.35;101853.81;1766125;79;21933;-56
2021/11/11 16:41:42;;;;;;;30.60;14.98;;;;;;;4.83;53.43;101862.83;1757056;79;21365;-56
2021/11/11 16:44:52;;;;;;;29.42;13.78;;;;;;;4.84;53.38;101857.78;1769846;78;21361;-56
2021/11/11 16:47:59;;;;;;;29.35;13.60;;;;;;;4.89;53.30;101865.13;1765949;80;21204;-55
2021/11/11 16:51:04;;;;;;;29.05;12.88;;;;;;;4.91;53.28;101867.25;1772811;78;21902;-55
2021/11/11 16:54:10;;;;;;;26.05;13.98;;;;;;;4.91;53.15;101875.40;1753354;79;21799;-56
2021/11/11 16:57:18;;;;;;;28.57;12.68;;;;;;;4.91;53.09;101885.77;1771944;78;21429;-55
2021/11/11 17:00:26;;;;;;;26.15;13.75;;;;;;;4.90;53.12;101897.58;1775057;78;21872;-56
2021/11/11 17:03:34;;;;;;;33.25;14.07;;;;;;;4.86;52.97;101897.89;1778513;77;21192;-55
2021/11/11 17:06:42;;;;;;;31.80;13.35;;;;;;;4.81;53.04;101862.05;1766438;77;21373;-56
2021/11/11 17:09:50;;;;;;;25.25;13.35;;;;;;;4.77;53.16;101857.83;1781078;79;21347;-56
2021/11/11 17:12:59;;;;;;;21.27;11.53;;;;;;;4.69;53.29;101872.38;1792416;76;21209;-56
2021/11/11 17:16:06;;;;;;;23.38;11.75;;;;;;;4.63;53.51;101870.08;1798739;79;21228;-55
2021/11/11 17:19:13;;;;;;;25.48;13.78;;;;;;;4.61;53.62;101858.83;1790761;78;21534;-55
2021/11/11 17:22:32;;;;;;;24.72;13.20;;;;;;;4.61;53.75;101866.12;1795467;79;21735;-55
2021/11/11 17:25:40;;;;;;;27.42;14.35;;;;;;;4.59;53.77;101864.87;1799374;79;21717;-54
2021/11/11 17:28:43;;;;;;;38.35;18.00;;;;;;;4.60;53.81;101866.59;1794309;77;21724;-54
2021/11/11 17:31:54;;;;;;;35.45;16.70;;;;;;;4.61;53.92;101870.19;1795550;78;22174;-55
2021/11/11 17:35:02;;;;;;;35.33;14.80;;;;;;;4.60;53.94;101858.46;1791481;77;21857;-54
2021/11/11 17:38:09;;;;;;;34.73;13.95;;;;;;;4.59;53.91;101855.85;1802206;76;21343;-54
2021/11/11 17:41:16;;;;;;;30.85;13.90;;;;;;;4.52;53.97;101832.33;1782891;76;21575;-53
2021/11/11 17:44:24;;;;;;;28.17;13.98;;;;;;;4.51;54.11;101831.08;1794726;78;21678;-55
2021/11/11 17:47:36;;;;;;;28.67;12.80;;;;;;;4.49;54.27;101816.75;1799569;79;21362;-55
2021/11/11 17:50:49;;;;;;;25.12;12.40;;;;;;;4.46;54.36;101808.34;1795519;78;21374;-56
2021/11/11 17:54:02;;;;;;;27.22;11.33;;;;;;;4.46;54.47;101805.64;1771593;78;21326;-55
2021/11/11 17:57:06;;;;;;;27.37;12.50;;;;;;;4.45;54.53;101807.09;1786559;78;21439;-54
2021/11/11 18:00:14;;;;;;;26.15;12.20;;;;;;;4.44;54.61;101807.58;1802235;77;21366;-56
2021/11/11 18:03:23;;;;;;;27.10;12.20;;;;;;;4.45;54.72;101803.91;1799381;76;21390;-54
2021/11/11 18:06:38;;;;;;;25.30;13.05;;;;;;;4.42;54.82;101809.50;1766190;76;21542;-57
2021/11/11 18:09:52;;;;;;;30.85;14.75;;;;;;;4.43;54.91;101814.45;1795647;78;21713;-54
2021/11/11 18:12:54;;;;;;;27.10;13.48;;;;;;;4.40;54.98;101822.32;1794060;77;21228;-54
2021/11/11 18:16:15;;;;;;;23.02;11.10;;;;;;;4.37;55.14;101823.87;1787421;78;21856;-54
2021/11/11 18:19:17;;;;;;;22.95;11.33;;;;;;;4.33;55.29;101816.02;1787706;76;21754;-56
2021/11/11 18:22:23;;;;;;;23.22;11.08;;;;;;;4.26;55.43;101815.59;1790166;76;21844;-56
2021/11/11 18:25:31;;;;;;;26.90;12.25;;;;;;;4.21;55.56;101810.95;1789353;76;21410;-54
2021/11/11 18:28:49;;;;;;;26.23;13.20;;;;;;;4.15;55.75;101809.13;1783765;76;21847;-56
2021/11/11 18:35:11;;;;;;;21.20;12.07;;;;;;;4.10;56.12;101809.42;1774528;79;21366;-54